sensor_id;sensor_type;location;lat;lon;timestamp;pressure;altitude;pressure_sealevel;temperature;humidity
62634;BME280;48704;50.534;6.442;2024-01-27T00:00:01;97179.22;;;-0.40;100.00
62634;BME280;48704;50.534;6.442;2024-01-27T00:02:27;97176.84;;;-0.41;100.00
62634;BME280;48704;50.534;6.442;2024-01-27T00:04:52;97174.19;;;-0.60;100.00
62634;BME280;48704;50.534;6.442;2024-01-27T00:07:17;97175.22;;;-0.69;100.00
62634;BME280;48704;50.534;6.442;2024-01-27T00:09:43;97173.75;;;-0.13;100.00
62634;BME280;48704;50.534;6.442;2024-01-27T00:12:08;97180.44;;;-0.11;100.00
62634;BME280;48704;50.534;6.442;2024-01-27T00:14:34;97173.25;;;-0.19;100.00
62634;BME280;48704;50.534;6.442;2024-01-27T00:16:59;97179.16;;;-0.17;100.00
62634;BME280;48704;50.534;6.442;2024-01-27T00:19:24;97174.84;;;-0.44;100.00
62634;BME280;48704;50.534;6.442;2024-01-27T00:21:49;97173.44;;;-0.57;100.00
62634;BME280;48704;50.534;6.442;2024-01-27T00:24:15;97173.31;;;-0.64;100.00
62634;BME280;48704;50.534;6.442;2024-01-27T00:26:41;97178.41;;;-0.89;100.00
62634;BME280;48704;50.534;6.442;2024-01-27T00:29:06;97178.25;;;-0.96;100.00
62634;BME280;48704;50.534;6.442;2024-01-27T00:31:31;97181.00;;;-0.74;100.00
62634;BME280;48704;50.534;6.442;2024-01-27T00:33:57;97183.94;;;-0.86;100.00
62634;BME280;48704;50.534;6.442;2024-01-27T00:36:22;97189.00;;;-1.07;100.00
62634;BME280;48704;50.534;6.442;2024-01-27T00:38:47;97193.03;;;-1.01;100.00
62634;BME280;48704;50.534;6.442;2024-01-27T00:41:17;97191.31;;;-1.09;100.00
62634;BME280;48704;50.534;6.442;2024-01-27T00:43:42;97182.34;;;-0.87;100.00
62634;BME280;48704;50.534;6.442;2024-01-27T00:46:07;97175.22;;;-0.91;100.00
62634;BME280;48704;50.534;6.442;2024-01-27T00:48:32;97173.56;;;-0.50;100.00
62634;BME280;48704;50.534;6.442;2024-01-27T00:50:58;97175.03;;;-0.56;100.00
62634;BME280;48704;50.534;6.442;2024-01-27T00:53:23;97192.31;;;-0.52;100.00
62634;BME280;48704;50.534;6.442;2024-01-27T00:55:48;97195.00;;;-0.79;100.00
62634;BME280;48704;50.534;6.442;2024-01-27T00:58:15;97199.00;;;-0.73;100.00
62634;BME280;48704;50.534;6.442;2024-01-27T01:00:41;97192.69;;;-0.77;100.00
62634;BME280;48704;50.534;6.442;2024-01-27T01:03:06;97193.16;;;-0.94;100.00
62634;BME280;48704;50.534;6.442;2024-01-27T01:05:31;97192.59;;;-1.03;100.00
62634;BME280;48704;50.534;6.442;2024-01-27T01:07:57;97196.69;;;-0.71;100.00
62634;BME280;48704;50.534;6.442;2024-01-27T01:10:22;97197.66;;;-0.59;100.00
62634;BME280;48704;50.534;6.442;2024-01-27T01:12:47;97191.84;;;-0.81;100.00
62634;BME280;48704;50.534;6.442;2024-01-27T01:15:12;97200.41;;;-0.82;100.00
62634;BME280;48704;50.534;6.442;2024-01-27T01:17:38;97202.50;;;-0.76;100.00
62634;BME280;48704;50.534;6.442;2024-01-27T01:20:03;97204.38;;;-0.80;100.00
62634;BME280;48704;50.534;6.442;2024-01-27T01:22:29;97204.25;;;-0.87;100.00
62634;BME280;48704;50.534;6.442;2024-01-27T01:24:55;97211.63;;;-1.10;100.00
62634;BME280;48704;50.534;6.442;2024-01-27T01:27:20;97198.19;;;-1.19;100.00
62634;BME280;48704;50.534;6.442;2024-01-27T01:29:46;97202.69;;;-1.07;100.00
62634;BME280;48704;50.534;6.442;2024-01-27T01:32:11;97203.53;;;-1.03;100.00
62634;BME280;48704;50.534;6.442;2024-01-27T01:34:36;97213.47;;;-0.95;100.00
62634;BME280;48704;50.534;6.442;2024-01-27T01:37:02;97216.38;;;-1.07;100.00
62634;BME280;48704;50.534;6.442;2024-01-27T01:39:27;97216.84;;;-1.24;100.00
62634;BME280;48704;50.534;6.442;2024-01-27T01:41:53;97226.78;;;-0.93;100.00
62634;BME280;48704;50.534;6.442;2024-01-27T01:44:18;97218.25;;;-1.11;100.00
62634;BME280;48704;50.534;6.442;2024-01-27T01:46:44;97220.06;;;-1.19;100.00
62634;BME280;48704;50.534;6.442;2024-01-27T01:49:10;97218.91;;;-1.37;100.00
62634;BME280;48704;50.534;6.442;2024-01-27T01:51:35;97226.72;;;-0.97;100.00
62634;BME280;48704;50.534;6.442;2024-01-27T01:54:01;97230.69;;;-0.94;100.00
62634;BME280;48704;50.534;6.442;2024-01-27T01:56:27;97232.66;;;-1.14;100.00
62634;BME280;48704;50.534;6.442;2024-01-27T01:58:54;97231.44;;;-1.36;100.00
62634;BME280;48704;50.534;6.442;2024-01-27T02:01:19;97229.94;;;-1.33;100.00
62634;BME280;48704;50.534;6.442;2024-01-27T02:03:56;97216.63;;;-1.35;100.00
62634;BME280;48704;50.534;6.442;2024-01-27T02:06:22;97218.50;;;-1.58;100.00
62634;BME280;48704;50.534;6.442;2024-01-27T02:08:47;97223.00;;;-1.47;100.00
62634;BME280;48704;50.534;6.442;2024-01-27T02:11:13;97218.28;;;-1.30;100.00
62634;BME280;48704;50.534;6.442;2024-01-27T02:13:38;97210.81;;;-1.53;100.00
62634;BME280;48704;50.534;6.442;2024-01-27T02:16:04;97215.56;;;-1.50;100.00
62634;BME280;48704;50.534;6.442;2024-01-27T02:18:30;97227.78;;;-1.24;100.00
62634;BME280;48704;50.534;6.442;2024-01-27T02:20:55;97225.31;;;-1.29;100.00
62634;BME280;48704;50.534;6.442;2024-01-27T02:23:20;97219.91;;;-1.45;100.00
62634;BME280;48704;50.534;6.442;2024-01-27T02:25:45;97212.00;;;-1.31;100.00
62634;BME280;48704;50.534;6.442;2024-01-27T02:28:11;97210.50;;;-1.28;100.00
62634;BME280;48704;50.534;6.442;2024-01-27T02:30:38;97211.16;;;-1.35;100.00
62634;BME280;48704;50.534;6.442;2024-01-27T02:33:04;97214.16;;;-1.40;100.00
62634;BME280;48704;50.534;6.442;2024-01-27T02:35:29;97223.75;;;-1.30;100.00
62634;BME280;48704;50.534;6.442;2024-01-27T02:37:55;97212.09;;;-1.27;100.00
62634;BME280;48704;50.534;6.442;2024-01-27T02:40:20;97216.63;;;-1.35;100.00
62634;BME280;48704;50.534;6.442;2024-01-27T02:42:46;97215.09;;;-1.32;100.00
62634;BME280;48704;50.534;6.442;2024-01-27T02:45:11;97217.41;;;-1.54;100.00
62634;BME280;48704;50.534;6.442;2024-01-27T02:47:37;97224.44;;;-1.72;100.00
62634;BME280;48704;50.534;6.442;2024-01-27T02:50:03;97234.59;;;-1.73;100.00
62634;BME280;48704;50.534;6.442;2024-01-27T02:52:29;97219.97;;;-1.80;100.00
62634;BME280;48704;50.534;6.442;2024-01-27T02:54:55;97221.13;;;-1.81;100.00
62634;BME280;48704;50.534;6.442;2024-01-27T02:57:21;97223.44;;;-1.64;100.00
62634;BME280;48704;50.534;6.442;2024-01-27T02:59:46;97222.72;;;-1.42;100.00
62634;BME280;48704;50.534;6.442;2024-01-27T03:02:12;97219.78;;;-1.33;100.00
62634;BME280;48704;50.534;6.442;2024-01-27T03:04:37;97206.31;;;-1.42;100.00
62634;BME280;48704;50.534;6.442;2024-01-27T03:07:03;97215.91;;;-1.32;100.00
62634;BME280;48704;50.534;6.442;2024-01-27T03:09:28;97222.59;;;-1.29;100.00
62634;BME280;48704;50.534;6.442;2024-01-27T03:11:53;97216.81;;;-1.44;100.00
62634;BME280;48704;50.534;6.442;2024-01-27T03:14:19;97217.13;;;-1.49;100.00
62634;BME280;48704;50.534;6.442;2024-01-27T03:16:44;97228.19;;;-1.42;100.00
62634;BME280;48704;50.534;6.442;2024-01-27T03:19:09;97230.31;;;-1.54;100.00
62634;BME280;48704;50.534;6.442;2024-01-27T03:21:35;97231.50;;;-1.71;100.00
62634;BME280;48704;50.534;6.442;2024-01-27T03:24:01;97227.16;;;-1.91;100.00
62634;BME280;48704;50.534;6.442;2024-01-27T03:26:26;97226.03;;;-1.71;100.00
62634;BME280;48704;50.534;6.442;2024-01-27T03:28:51;97223.53;;;-1.60;100.00
62634;BME280;48704;50.534;6.442;2024-01-27T03:31:17;97223.88;;;-1.62;100.00
62634;BME280;48704;50.534;6.442;2024-01-27T03:33:42;97230.53;;;-1.79;100.00
62634;BME280;48704;50.534;6.442;2024-01-27T03:36:11;97226.44;;;-1.88;100.00
62634;BME280;48704;50.534;6.442;2024-01-27T03:38:45;97228.75;;;-1.90;100.00
62634;BME280;48704;50.534;6.442;2024-01-27T03:41:11;97231.41;;;-2.10;100.00
62634;BME280;48704;50.534;6.442;2024-01-27T03:43:36;97226.28;;;-1.95;100.00
62634;BME280;48704;50.534;6.442;2024-01-27T03:46:01;97233.16;;;-1.86;100.00
62634;BME280;48704;50.534;6.442;2024-01-27T03:48:28;97233.34;;;-1.94;100.00
62634;BME280;48704;50.534;6.442;2024-01-27T03:50:53;97236.88;;;-1.75;100.00
62634;BME280;48704;50.534;6.442;2024-01-27T03:53:18;97237.13;;;-1.64;100.00
62634;BME280;48704;50.534;6.442;2024-01-27T03:55:44;97241.31;;;-1.51;100.00
62634;BME280;48704;50.534;6.442;2024-01-27T03:58:09;97223.00;;;-1.47;100.00
62634;BME280;48704;50.534;6.442;2024-01-27T04:00:34;97225.03;;;-1.44;100.00
62634;BME280;48704;50.534;6.442;2024-01-27T04:03:00;97232.06;;;-1.43;100.00
62634;BME280;48704;50.534;6.442;2024-01-27T04:05:26;97243.00;;;-1.43;100.00
62634;BME280;48704;50.534;6.442;2024-01-27T04:07:51;97250.22;;;-1.54;100.00
62634;BME280;48704;50.534;6.442;2024-01-27T04:10:17;97245.19;;;-1.52;100.00
62634;BME280;48704;50.534;6.442;2024-01-27T04:12:43;97252.25;;;-1.51;100.00
62634;BME280;48704;50.534;6.442;2024-01-27T04:15:09;97250.34;;;-1.66;100.00
62634;BME280;48704;50.534;6.442;2024-01-27T04:17:35;97249.59;;;-1.82;100.00
62634;BME280;48704;50.534;6.442;2024-01-27T04:20:01;97252.03;;;-1.77;100.00
62634;BME280;48704;50.534;6.442;2024-01-27T04:22:26;97237.66;;;-1.74;100.00
62634;BME280;48704;50.534;6.442;2024-01-27T04:24:51;97242.69;;;-1.95;100.00
62634;BME280;48704;50.534;6.442;2024-01-27T04:27:16;97242.44;;;-1.71;100.00
62634;BME280;48704;50.534;6.442;2024-01-27T04:29:42;97241.00;;;-1.65;100.00
62634;BME280;48704;50.534;6.442;2024-01-27T04:32:07;97245.34;;;-1.80;100.00
62634;BME280;48704;50.534;6.442;2024-01-27T04:34:32;97247.72;;;-1.78;100.00
62634;BME280;48704;50.534;6.442;2024-01-27T04:36:58;97252.38;;;-1.63;100.00
62634;BME280;48704;50.534;6.442;2024-01-27T04:39:23;97261.59;;;-1.52;100.00
62634;BME280;48704;50.534;6.442;2024-01-27T04:41:48;97254.22;;;-1.67;100.00
62634;BME280;48704;50.534;6.442;2024-01-27T04:44:14;97257.66;;;-1.89;100.00
62634;BME280;48704;50.534;6.442;2024-01-27T04:46:39;97254.78;;;-1.77;100.00
62634;BME280;48704;50.534;6.442;2024-01-27T04:49:04;97261.59;;;-1.52;100.00
62634;BME280;48704;50.534;6.442;2024-01-27T04:51:30;97257.84;;;-1.44;100.00
62634;BME280;48704;50.534;6.442;2024-01-27T04:53:55;97260.72;;;-1.56;100.00
62634;BME280;48704;50.534;6.442;2024-01-27T04:56:20;97264.44;;;-1.64;100.00
62634;BME280;48704;50.534;6.442;2024-01-27T04:58:45;97258.44;;;-1.54;100.00
62634;BME280;48704;50.534;6.442;2024-01-27T05:01:11;97253.69;;;-1.92;100.00
62634;BME280;48704;50.534;6.442;2024-01-27T05:03:36;97258.34;;;-1.92;100.00
62634;BME280;48704;50.534;6.442;2024-01-27T05:06:02;97264.63;;;-2.08;100.00
62634;BME280;48704;50.534;6.442;2024-01-27T05:08:27;97272.38;;;-2.10;100.00
62634;BME280;48704;50.534;6.442;2024-01-27T05:10:52;97270.81;;;-2.11;100.00
62634;BME280;48704;50.534;6.442;2024-01-27T05:13:18;97263.13;;;-2.21;100.00
62634;BME280;48704;50.534;6.442;2024-01-27T05:15:43;97256.75;;;-2.28;100.00
62634;BME280;48704;50.534;6.442;2024-01-27T05:18:08;97262.13;;;-2.32;100.00
62634;BME280;48704;50.534;6.442;2024-01-27T05:20:35;97266.66;;;-2.05;100.00
62634;BME280;48704;50.534;6.442;2024-01-27T05:23:00;97265.16;;;-2.18;100.00
62634;BME280;48704;50.534;6.442;2024-01-27T05:25:25;97269.28;;;-1.92;100.00
62634;BME280;48704;50.534;6.442;2024-01-27T05:27:51;97267.66;;;-1.78;100.00
62634;BME280;48704;50.534;6.442;2024-01-27T05:30:16;97262.22;;;-1.58;100.00
62634;BME280;48704;50.534;6.442;2024-01-27T05:32:42;97256.53;;;-1.69;100.00
62634;BME280;48704;50.534;6.442;2024-01-27T05:35:07;97254.31;;;-1.63;100.00
62634;BME280;48704;50.534;6.442;2024-01-27T05:37:33;97259.97;;;-1.72;100.00
62634;BME280;48704;50.534;6.442;2024-01-27T05:39:58;97263.25;;;-1.82;100.00
62634;BME280;48704;50.534;6.442;2024-01-27T05:42:24;97249.91;;;-1.87;100.00
62634;BME280;48704;50.534;6.442;2024-01-27T05:44:49;97246.75;;;-2.05;100.00
62634;BME280;48704;50.534;6.442;2024-01-27T05:47:14;97265.78;;;-2.09;100.00
62634;BME280;48704;50.534;6.442;2024-01-27T05:49:41;97254.91;;;-2.24;100.00
62634;BME280;48704;50.534;6.442;2024-01-27T05:52:06;97243.13;;;-2.09;100.00
62634;BME280;48704;50.534;6.442;2024-01-27T05:54:31;97247.25;;;-1.99;100.00
62634;BME280;48704;50.534;6.442;2024-01-27T05:56:57;97242.25;;;-1.78;100.00
62634;BME280;48704;50.534;6.442;2024-01-27T05:59:23;97251.31;;;-1.93;100.00
62634;BME280;48704;50.534;6.442;2024-01-27T06:01:48;97250.28;;;-2.05;100.00
62634;BME280;48704;50.534;6.442;2024-01-27T06:04:13;97251.59;;;-1.98;100.00
62634;BME280;48704;50.534;6.442;2024-01-27T06:06:38;97258.94;;;-1.83;100.00
62634;BME280;48704;50.534;6.442;2024-01-27T06:09:04;97253.72;;;-2.08;100.00
62634;BME280;48704;50.534;6.442;2024-01-27T06:11:30;97253.97;;;-2.13;100.00
62634;BME280;48704;50.534;6.442;2024-01-27T06:13:55;97259.81;;;-2.30;100.00
62634;BME280;48704;50.534;6.442;2024-01-27T06:16:21;97248.84;;;-1.98;100.00
62634;BME280;48704;50.534;6.442;2024-01-27T06:18:46;97254.38;;;-1.60;100.00
62634;BME280;48704;50.534;6.442;2024-01-27T06:21:12;97252.41;;;-1.79;100.00
62634;BME280;48704;50.534;6.442;2024-01-27T06:23:38;97257.94;;;-1.94;100.00
62634;BME280;48704;50.534;6.442;2024-01-27T06:26:07;97249.63;;;-1.63;100.00
62634;BME280;48704;50.534;6.442;2024-01-27T06:28:33;97260.66;;;-1.59;100.00
62634;BME280;48704;50.534;6.442;2024-01-27T06:30:59;97244.16;;;-1.63;100.00
62634;BME280;48704;50.534;6.442;2024-01-27T06:33:25;97258.75;;;-1.75;100.00
62634;BME280;48704;50.534;6.442;2024-01-27T06:35:50;97255.03;;;-2.02;100.00
62634;BME280;48704;50.534;6.442;2024-01-27T06:38:15;97258.75;;;-2.41;100.00
62634;BME280;48704;50.534;6.442;2024-01-27T06:40:41;97256.28;;;-2.46;100.00
62634;BME280;48704;50.534;6.442;2024-01-27T06:43:06;97261.22;;;-2.36;100.00
62634;BME280;48704;50.534;6.442;2024-01-27T06:45:31;97256.72;;;-2.13;100.00
62634;BME280;48704;50.534;6.442;2024-01-27T06:47:56;97251.25;;;-2.13;100.00
62634;BME280;48704;50.534;6.442;2024-01-27T06:50:22;97250.75;;;-2.34;100.00
62634;BME280;48704;50.534;6.442;2024-01-27T06:52:48;97254.81;;;-2.44;100.00
62634;BME280;48704;50.534;6.442;2024-01-27T06:55:13;97251.09;;;-2.36;100.00
62634;BME280;48704;50.534;6.442;2024-01-27T06:57:38;97249.94;;;-2.50;100.00
62634;BME280;48704;50.534;6.442;2024-01-27T07:00:06;97251.28;;;-2.44;100.00
62634;BME280;48704;50.534;6.442;2024-01-27T07:02:31;97257.63;;;-2.24;100.00
62634;BME280;48704;50.534;6.442;2024-01-27T07:04:57;97264.09;;;-2.13;100.00
62634;BME280;48704;50.534;6.442;2024-01-27T07:07:26;97259.53;;;-2.09;100.00
62634;BME280;48704;50.534;6.442;2024-01-27T07:09:54;97263.00;;;-2.28;100.00
62634;BME280;48704;50.534;6.442;2024-01-27T07:12:19;97256.91;;;-2.37;100.00
62634;BME280;48704;50.534;6.442;2024-01-27T07:14:45;97259.47;;;-2.44;100.00
62634;BME280;48704;50.534;6.442;2024-01-27T07:17:10;97269.88;;;-2.34;100.00
62634;BME280;48704;50.534;6.442;2024-01-27T07:19:35;97271.94;;;-2.12;100.00
62634;BME280;48704;50.534;6.442;2024-01-27T07:22:00;97282.16;;;-2.09;100.00
62634;BME280;48704;50.534;6.442;2024-01-27T07:24:38;97279.44;;;-2.09;100.00
62634;BME280;48704;50.534;6.442;2024-01-27T07:27:04;97285.06;;;-2.17;100.00
62634;BME280;48704;50.534;6.442;2024-01-27T07:29:30;97275.19;;;-2.06;100.00
62634;BME280;48704;50.534;6.442;2024-01-27T07:31:55;97290.00;;;-1.91;100.00
62634;BME280;48704;50.534;6.442;2024-01-27T07:34:20;97292.81;;;-1.88;100.00
62634;BME280;48704;50.534;6.442;2024-01-27T07:36:46;97298.63;;;-1.89;100.00
62634;BME280;48704;50.534;6.442;2024-01-27T07:39:13;97306.81;;;-1.89;100.00
62634;BME280;48704;50.534;6.442;2024-01-27T07:41:38;97319.25;;;-1.92;100.00
62634;BME280;48704;50.534;6.442;2024-01-27T07:44:11;97326.66;;;-1.92;100.00
62634;BME280;48704;50.534;6.442;2024-01-27T07:46:38;97321.19;;;-1.92;100.00
62634;BME280;48704;50.534;6.442;2024-01-27T07:49:03;97321.63;;;-1.90;100.00
62634;BME280;48704;50.534;6.442;2024-01-27T07:51:29;97332.00;;;-1.80;100.00
62634;BME280;48704;50.534;6.442;2024-01-27T07:53:55;97333.59;;;-1.79;100.00
62634;BME280;48704;50.534;6.442;2024-01-27T07:56:21;97328.28;;;-1.72;100.00
62634;BME280;48704;50.534;6.442;2024-01-27T07:58:46;97327.66;;;-1.65;100.00
62634;BME280;48704;50.534;6.442;2024-01-27T08:01:15;97325.44;;;-1.60;100.00
62634;BME280;48704;50.534;6.442;2024-01-27T08:03:41;97324.81;;;-1.53;100.00
62634;BME280;48704;50.534;6.442;2024-01-27T08:06:07;97326.91;;;-1.47;100.00
62634;BME280;48704;50.534;6.442;2024-01-27T08:08:35;97332.25;;;-1.35;100.00
62634;BME280;48704;50.534;6.442;2024-01-27T08:11:00;97329.41;;;-1.22;100.00
62634;BME280;48704;50.534;6.442;2024-01-27T08:13:25;97331.84;;;-1.17;100.00
62634;BME280;48704;50.534;6.442;2024-01-27T08:15:51;97334.44;;;-1.05;100.00
62634;BME280;48704;50.534;6.442;2024-01-27T08:18:16;97333.06;;;-0.95;100.00
62634;BME280;48704;50.534;6.442;2024-01-27T08:20:41;97329.81;;;-1.01;100.00
62634;BME280;48704;50.534;6.442;2024-01-27T08:23:07;97335.59;;;-0.87;100.00
62634;BME280;48704;50.534;6.442;2024-01-27T08:25:33;97323.94;;;-0.84;100.00
62634;BME280;48704;50.534;6.442;2024-01-27T08:27:59;97331.94;;;-0.75;100.00
62634;BME280;48704;50.534;6.442;2024-01-27T08:30:24;97325.66;;;-0.76;100.00
62634;BME280;48704;50.534;6.442;2024-01-27T08:32:49;97325.56;;;-0.60;100.00
62634;BME280;48704;50.534;6.442;2024-01-27T08:35:14;97313.50;;;-0.55;100.00
62634;BME280;48704;50.534;6.442;2024-01-27T08:37:40;97320.28;;;-0.49;100.00
62634;BME280;48704;50.534;6.442;2024-01-27T08:40:06;97317.69;;;-0.42;100.00
62634;BME280;48704;50.534;6.442;2024-01-27T08:42:32;97311.03;;;-0.41;100.00
62634;BME280;48704;50.534;6.442;2024-01-27T08:44:58;97316.09;;;-0.43;100.00
62634;BME280;48704;50.534;6.442;2024-01-27T08:47:23;97317.13;;;-0.51;100.00
62634;BME280;48704;50.534;6.442;2024-01-27T08:49:49;97305.63;;;-0.15;100.00
62634;BME280;48704;50.534;6.442;2024-01-27T08:52:14;97309.59;;;0.14;100.00
62634;BME280;48704;50.534;6.442;2024-01-27T08:54:40;97310.19;;;0.27;100.00
62634;BME280;48704;50.534;6.442;2024-01-27T08:57:06;97310.72;;;0.36;100.00
62634;BME280;48704;50.534;6.442;2024-01-27T08:59:31;97301.84;;;0.46;100.00
62634;BME280;48704;50.534;6.442;2024-01-27T09:01:56;97302.06;;;0.60;100.00
62634;BME280;48704;50.534;6.442;2024-01-27T09:04:22;97301.22;;;0.56;100.00
62634;BME280;48704;50.534;6.442;2024-01-27T09:06:47;97300.47;;;0.59;100.00
62634;BME280;48704;50.534;6.442;2024-01-27T09:09:12;97296.47;;;0.53;100.00
62634;BME280;48704;50.534;6.442;2024-01-27T09:11:38;97297.84;;;0.66;100.00
62634;BME280;48704;50.534;6.442;2024-01-27T09:14:03;97297.09;;;0.70;100.00
62634;BME280;48704;50.534;6.442;2024-01-27T09:16:30;97293.63;;;0.73;100.00
62634;BME280;48704;50.534;6.442;2024-01-27T09:18:55;97296.00;;;0.78;100.00
62634;BME280;48704;50.534;6.442;2024-01-27T09:21:21;97297.03;;;0.96;100.00
62634;BME280;48704;50.534;6.442;2024-01-27T09:23:53;97286.38;;;1.24;100.00
62634;BME280;48704;50.534;6.442;2024-01-27T09:26:18;97300.38;;;1.90;100.00
62634;BME280;48704;50.534;6.442;2024-01-27T09:28:44;97289.19;;;2.75;100.00
62634;BME280;48704;50.534;6.442;2024-01-27T09:31:11;97296.59;;;3.68;100.00
62634;BME280;48704;50.534;6.442;2024-01-27T09:33:36;97304.53;;;4.37;100.00
62634;BME280;48704;50.534;6.442;2024-01-27T09:36:02;97312.31;;;4.85;100.00
62634;BME280;48704;50.534;6.442;2024-01-27T09:38:28;97314.75;;;4.22;100.00
62634;BME280;48704;50.534;6.442;2024-01-27T09:40:53;97306.44;;;3.69;100.00
62634;BME280;48704;50.534;6.442;2024-01-27T09:43:19;97301.19;;;3.21;100.00
62634;BME280;48704;50.534;6.442;2024-01-27T09:45:45;97308.16;;;2.94;100.00
62634;BME280;48704;50.534;6.442;2024-01-27T09:48:11;97325.25;;;2.55;100.00
62634;BME280;48704;50.534;6.442;2024-01-27T09:50:40;97312.44;;;2.22;100.00
62634;BME280;48704;50.534;6.442;2024-01-27T09:53:06;97313.56;;;2.18;100.00
62634;BME280;48704;50.534;6.442;2024-01-27T09:55:33;97310.75;;;2.11;100.00
62634;BME280;48704;50.534;6.442;2024-01-27T09:57:59;97315.44;;;2.07;100.00
62634;BME280;48704;50.534;6.442;2024-01-27T10:00:25;97319.09;;;2.25;100.00
62634;BME280;48704;50.534;6.442;2024-01-27T10:02:54;97317.53;;;2.82;100.00
62634;BME280;48704;50.534;6.442;2024-01-27T10:05:19;97313.94;;;3.65;100.00
62634;BME280;48704;50.534;6.442;2024-01-27T10:07:44;97315.56;;;4.37;100.00
62634;BME280;48704;50.534;6.442;2024-01-27T10:10:10;97317.09;;;4.74;100.00
62634;BME280;48704;50.534;6.442;2024-01-27T10:12:40;97317.72;;;5.24;100.00
62634;BME280;48704;50.534;6.442;2024-01-27T10:15:18;97314.28;;;5.82;100.00
62634;BME280;48704;50.534;6.442;2024-01-27T10:17:44;97307.81;;;6.07;100.00
62634;BME280;48704;50.534;6.442;2024-01-27T10:20:11;97299.44;;;5.55;99.17
62634;BME280;48704;50.534;6.442;2024-01-27T10:22:42;97297.13;;;6.05;99.24
62634;BME280;48704;50.534;6.442;2024-01-27T10:25:08;97305.38;;;5.50;96.96
62634;BME280;48704;50.534;6.442;2024-01-27T10:27:37;97308.22;;;5.28;99.29
62634;BME280;48704;50.534;6.442;2024-01-27T10:30:03;97304.22;;;5.44;97.40
62634;BME280;48704;50.534;6.442;2024-01-27T10:32:28;97303.38;;;5.54;96.24
62634;BME280;48704;50.534;6.442;2024-01-27T10:35:04;97297.72;;;5.75;94.96
62634;BME280;48704;50.534;6.442;2024-01-27T10:37:30;97301.63;;;5.81;94.09
62634;BME280;48704;50.534;6.442;2024-01-27T10:40:02;97302.91;;;5.66;93.74
62634;BME280;48704;50.534;6.442;2024-01-27T10:42:29;97298.09;;;5.77;93.37
62634;BME280;48704;50.534;6.442;2024-01-27T10:44:58;97303.25;;;5.75;92.83
62634;BME280;48704;50.534;6.442;2024-01-27T10:47:27;97314.34;;;5.68;93.29
62634;BME280;48704;50.534;6.442;2024-01-27T10:49:55;97303.66;;;5.70;92.16
62634;BME280;48704;50.534;6.442;2024-01-27T10:52:23;97300.16;;;5.59;91.45
62634;BME280;48704;50.534;6.442;2024-01-27T10:54:55;97298.31;;;6.08;91.53
62634;BME280;48704;50.534;6.442;2024-01-27T10:57:24;97295.50;;;6.59;90.06
62634;BME280;48704;50.534;6.442;2024-01-27T10:59:51;97295.22;;;5.95;89.63
62634;BME280;48704;50.534;6.442;2024-01-27T11:02:18;97281.09;;;6.75;87.89
62634;BME280;48704;50.534;6.442;2024-01-27T11:04:44;97293.19;;;6.92;85.95
62634;BME280;48704;50.534;6.442;2024-01-27T11:07:11;97287.66;;;7.83;84.64
62634;BME280;48704;50.534;6.442;2024-01-27T11:09:37;97290.69;;;7.38;82.81
62634;BME280;48704;50.534;6.442;2024-01-27T11:12:04;97298.53;;;8.01;83.27
62634;BME280;48704;50.534;6.442;2024-01-27T11:14:30;97299.25;;;8.05;79.46
62634;BME280;48704;50.534;6.442;2024-01-27T11:16:56;97297.72;;;8.00;81.93
62634;BME280;48704;50.534;6.442;2024-01-27T11:19:22;97305.84;;;7.27;83.18
62634;BME280;48704;50.534;6.442;2024-01-27T11:21:48;97310.09;;;7.69;82.81
62634;BME280;48704;50.534;6.442;2024-01-27T11:24:17;97302.38;;;7.80;77.69
62634;BME280;48704;50.534;6.442;2024-01-27T11:26:43;97302.22;;;8.18;78.26
62634;BME280;48704;50.534;6.442;2024-01-27T11:29:09;97302.03;;;7.78;78.33
62634;BME280;48704;50.534;6.442;2024-01-27T11:31:48;97297.72;;;8.00;78.21
62634;BME280;48704;50.534;6.442;2024-01-27T11:34:13;97311.28;;;8.22;76.57
62634;BME280;48704;50.534;6.442;2024-01-27T11:36:42;97314.97;;;7.58;74.16
62634;BME280;48704;50.534;6.442;2024-01-27T11:39:23;97307.66;;;8.75;75.87
62634;BME280;48704;50.534;6.442;2024-01-27T11:41:48;97307.56;;;8.32;73.82
62634;BME280;48704;50.534;6.442;2024-01-27T11:44:14;97306.75;;;8.35;70.30
62634;BME280;48704;50.534;6.442;2024-01-27T11:46:40;97307.72;;;7.94;69.42
62634;BME280;48704;50.534;6.442;2024-01-27T11:49:06;97310.19;;;8.16;71.76
62634;BME280;48704;50.534;6.442;2024-01-27T11:51:31;97307.56;;;9.22;70.50
62634;BME280;48704;50.534;6.442;2024-01-27T11:53:56;97313.44;;;8.11;70.34
62634;BME280;48704;50.534;6.442;2024-01-27T11:56:22;97309.66;;;8.51;70.59
62634;BME280;48704;50.534;6.442;2024-01-27T11:58:48;97311.03;;;8.63;69.25
62634;BME280;48704;50.534;6.442;2024-01-27T12:01:14;97319.59;;;8.95;66.46
62634;BME280;48704;50.534;6.442;2024-01-27T12:03:40;97326.00;;;8.69;70.96
62634;BME280;48704;50.534;6.442;2024-01-27T12:06:07;97319.81;;;9.04;67.46
62634;BME280;48704;50.534;6.442;2024-01-27T12:08:35;97316.97;;;9.08;66.15
62634;BME280;48704;50.534;6.442;2024-01-27T12:11:00;97310.66;;;9.27;65.02
62634;BME280;48704;50.534;6.442;2024-01-27T12:13:26;97317.06;;;9.64;65.27
62634;BME280;48704;50.534;6.442;2024-01-27T12:15:51;97316.28;;;8.57;59.98
62634;BME280;48704;50.534;6.442;2024-01-27T12:18:16;97313.75;;;8.66;65.28
62634;BME280;48704;50.534;6.442;2024-01-27T12:20:44;97308.53;;;8.92;63.19
62634;BME280;48704;50.534;6.442;2024-01-27T12:23:10;97315.81;;;9.85;62.36
62634;BME280;48704;50.534;6.442;2024-01-27T12:25:35;97310.16;;;9.88;60.91
62634;BME280;48704;50.534;6.442;2024-01-27T12:28:05;97308.75;;;9.80;58.17
62634;BME280;48704;50.534;6.442;2024-01-27T12:30:33;97294.06;;;10.32;59.06
62634;BME280;48704;50.534;6.442;2024-01-27T12:32:59;97295.16;;;9.82;59.62
62634;BME280;48704;50.534;6.442;2024-01-27T12:35:26;97278.88;;;10.00;60.63
62634;BME280;48704;50.534;6.442;2024-01-27T12:37:51;97288.66;;;10.57;58.63
62634;BME280;48704;50.534;6.442;2024-01-27T12:40:19;97294.34;;;10.83;56.43
62634;BME280;48704;50.534;6.442;2024-01-27T12:42:46;97301.44;;;10.22;57.58
62634;BME280;48704;50.534;6.442;2024-01-27T12:45:11;97289.81;;;10.07;58.37
62634;BME280;48704;50.534;6.442;2024-01-27T12:47:36;97289.53;;;10.22;58.63